createdAt,value
2022-11-25T00:01:19.155Z,98297.16018641283
2022-11-25T00:04:17.003Z,98298.51900106951
2022-11-25T00:07:17.093Z,98298.74982337774
2022-11-25T00:11:17.778Z,98296.08393148711
2022-11-25T00:14:17.361Z,98298.51203466624
2022-11-25T00:17:17.623Z,98296.9753027466
2022-11-25T00:21:19.009Z,98298.69216491088
2022-11-25T00:24:17.228Z,98303.51302084618
2022-11-25T00:27:17.037Z,98309.97604437664
2022-11-25T00:31:19.168Z,98303.69090652025
2022-11-25T00:34:17.426Z,98300.79734256268
2022-11-25T00:37:17.335Z,98302.74478096953
2022-11-25T00:51:17.118Z,98289.31137520177
2022-11-25T00:54:17.430Z,98282.33692180182
2022-11-25T00:57:19.455Z,98278.29092168224
2022-11-25T01:01:16.368Z,98281.54972609022
2022-11-25T01:04:16.992Z,98279.85170909611
2022-11-25T01:07:17.525Z,98290.70762294246
2022-11-25T01:11:19.397Z,98299.45476849374
2022-11-25T01:14:17.272Z,98296.50110882112
2022-11-25T01:17:17.016Z,98304.65000238098
2022-11-25T01:21:19.354Z,98311.53845078518
2022-11-25T01:24:17.719Z,98311.9276324739
2022-11-25T01:27:17.371Z,98314.73246700369
2022-11-25T01:31:19.036Z,98314.81818303755
2022-11-25T01:34:19.679Z,98317.51071840296
2022-11-25T01:37:17.514Z,98323.85925293165
2022-11-25T01:41:16.492Z,98334.1467577812
2022-11-25T01:44:18.661Z,98337.84176319449
2022-11-25T01:47:22.504Z,98338.74021521519
2022-11-25T01:51:23.256Z,98332.86353697535
2022-11-25T01:54:22.168Z,98330.16966582883
2022-11-25T01:57:21.608Z,98325.89330663014
2022-11-25T02:01:17.408Z,98339.71154514894
2022-11-25T02:04:18.382Z,98350.07100881895
2022-11-25T02:07:24.311Z,98349.23922882532
2022-11-25T02:11:18.447Z,98351.53772388928
2022-11-25T02:14:19.487Z,98347.69035285951
2022-11-25T02:17:17.144Z,98348.55449506319
2022-11-25T02:21:21.354Z,98353.63012417225
2022-11-25T02:24:33.242Z,98351.0114616247
2022-11-25T02:27:18.425Z,98360.38891205026
2022-11-25T02:31:19.356Z,98362.69926205819
2022-11-25T02:34:16.999Z,98371.26120661871
2022-11-25T02:37:20.395Z,98364.21400792134
2022-11-25T02:41:20.319Z,98361.77444484732
2022-11-25T02:44:17.670Z,98355.96216025729
2022-11-25T02:47:17.564Z,98362.00325026998
2022-11-25T02:51:19.819Z,98366.17354985049
2022-11-25T02:54:16.933Z,98362.81151467186
2022-11-25T02:57:16.984Z,98361.70000498461
2022-11-25T03:01:17.542Z,98365.68181709343
2022-11-25T03:04:17.246Z,98365.93494884374
2022-11-25T03:07:17.153Z,98356.6039067072
2022-11-25T03:11:16.313Z,98354.98870539617
2022-11-25T03:14:16.488Z,98344.530494913
2022-11-25T03:17:16.767Z,98336.95300224767
2022-11-25T03:31:17.564Z,98341.5728067444
2022-11-25T03:34:17.486Z,98341.43857108407
2022-11-25T03:37:17.906Z,98343.0222238618
2022-11-25T03:41:17.182Z,98338.96606679563
2022-11-25T03:44:17.627Z,98331.42646906695
2022-11-25T03:47:17.679Z,98318.9442473063
2022-11-25T03:51:16.747Z,98327.36203017434
2022-11-25T03:54:17.047Z,98322.46184166528
2022-11-25T03:57:17.254Z,98312.16547138387
2022-11-25T04:01:16.397Z,98310.95145746628
2022-11-25T04:04:16.848Z,98314.22878476564
2022-11-25T04:07:16.956Z,98315.91040926694
2022-11-25T04:11:17.577Z,98304.00686000072
2022-11-25T04:14:17.579Z,98306.86915571353
2022-11-25T04:17:17.415Z,98318.36495955312
2022-11-25T04:21:16.331Z,98328.56822373794
2022-11-25T04:24:16.806Z,98342.33842581816
2022-11-25T04:27:16.710Z,98342.10222378757
2022-11-25T04:31:16.670Z,98339.24038853208
2022-11-25T04:34:17.196Z,98331.68142684232
2022-11-25T04:37:17.010Z,98343.90503233999
2022-11-25T04:41:16.379Z,98349.93573356878
2022-11-25T04:44:16.478Z,98343.54497078831
2022-11-25T04:47:16.796Z,98344.93392815272
2022-11-25T04:51:16.575Z,98363.73828246974
2022-11-25T04:54:17.668Z,98363.04569559911
2022-11-25T04:57:17.243Z,98366.16215894255
2022-11-25T05:01:16.718Z,98370.43382006449
2022-11-25T05:04:16.946Z,98377.4419626953
2022-11-25T05:07:19.443Z,98383.50139690317
2022-11-25T05:11:17.186Z,98392.73214064467
2022-11-25T05:14:17.374Z,98397.44488484213
2022-11-25T05:17:18.821Z,98411.9545982701
2022-11-25T05:21:16.714Z,98422.93002226244
2022-11-25T05:24:17.203Z,98423.50314791073
2022-11-25T05:27:18.020Z,98431.02461369552
2022-11-25T05:31:16.149Z,98443.49927178722
2022-11-25T05:34:16.448Z,98447.00892621076
2022-11-25T05:37:21.144Z,98451.54052837125
2022-11-25T05:41:16.782Z,98447.66172228058
2022-11-25T05:44:22.437Z,98446.7727251093
2022-11-25T05:47:17.353Z,98450.13286008277
2022-11-25T05:51:16.359Z,98446.72284833451
2022-11-25T05:54:16.902Z,98450.56466448435
2022-11-25T05:57:16.837Z,98447.12445350818
2022-11-25T06:01:17.353Z,98443.86017029778
2022-11-25T06:04:17.490Z,98450.45660054014
2022-11-25T06:07:17.600Z,98457.51875181594
2022-11-25T06:11:17.959Z,98461.09318299827
2022-11-25T06:14:18.158Z,98465.4769176567
2022-11-25T06:17:17.135Z,98460.20257206523
2022-11-25T06:21:17.375Z,98453.86396938261
2022-11-25T06:24:16.707Z,98459.91860578653
2022-11-25T06:27:16.798Z,98463.16327248371
2022-11-25T06:31:19.571Z,98462.94877107932
2022-11-25T06:34:16.924Z,98464.41685620262
2022-11-25T06:37:16.853Z,98470.62644707713
2022-11-25T06:41:16.955Z,98476.9841685877
2022-11-25T06:44:17.116Z,98475.29294806898
2022-11-25T06:47:16.691Z,98485.59585730355
2022-11-25T06:51:17.288Z,98487.4567175296
2022-11-25T06:54:17.467Z,98471.81286046503
2022-11-25T06:57:18.906Z,98471.07531696075
2022-11-25T07:01:20.388Z,98486.37429422382
2022-11-25T07:04:17.307Z,98482.2146935503
2022-11-25T07:07:17.459Z,98486.4186060992
2022-11-25T07:11:19.822Z,98477.62135983305
2022-11-25T07:14:17.726Z,98479.33209308462
2022-11-25T07:17:17.696Z,98463.98571074592
2022-11-25T07:21:18.979Z,98464.60435309236
2022-11-25T07:24:17.531Z,98458.96229619192
2022-11-25T07:27:17.201Z,98454.67606696242
2022-11-25T07:31:25.089Z,98450.8077637203
2022-11-25T07:34:20.256Z,98446.68827467921
2022-11-25T07:37:18.267Z,98444.7584403663
2022-11-25T07:41:18.388Z,98447.30617648365
2022-11-25T07:44:17.120Z,98451.62329944613
2022-11-25T07:47:16.904Z,98445.50715108482
2022-11-25T07:51:18.526Z,98445.57523712855
2022-11-25T07:54:17.345Z,98444.05183884132
2022-11-25T07:57:17.072Z,98444.62765656236
2022-11-25T08:01:18.160Z,98446.09050870841
2022-11-25T08:04:20.064Z,98442.64280303079
2022-11-25T08:07:16.969Z,98429.53424427254
2022-11-25T08:11:18.845Z,98422.27103949714
2022-11-25T08:14:17.176Z,98423.97595724861
2022-11-25T08:17:16.838Z,98420.661524582
2022-11-25T08:21:18.182Z,98411.76504658663
2022-11-25T08:24:19.828Z,98412.1115642934
2022-11-25T08:27:17.617Z,98407.113981116
2022-11-25T08:31:20.025Z,98412.2615248751
2022-11-25T08:34:19.525Z,98411.55713465127
2022-11-25T08:37:17.064Z,98414.1971569147
2022-11-25T08:41:19.940Z,98424.12564092828
2022-11-25T08:44:17.335Z,98425.97025729438
2022-11-25T08:47:17.223Z,98429.63613219894
2022-11-25T08:51:19.212Z,98431.70677614649
2022-11-25T08:54:17.603Z,98434.09624357532
2022-11-25T08:57:17.498Z,98435.10558736343
2022-11-25T09:01:19.082Z,98439.93254772224
2022-11-25T09:04:17.495Z,98446.45016480058
2022-11-25T09:07:17.841Z,98456.21290137996
2022-11-25T09:11:17.399Z,98442.04598290038
2022-11-25T09:14:17.446Z,98434.89633339886
2022-11-25T09:17:17.335Z,98430.35179435524
2022-11-25T09:21:17.405Z,98429.29509334204
2022-11-25T09:24:17.178Z,98434.79107707046
2022-11-25T09:27:17.103Z,98443.03721230576
2022-11-25T09:31:17.495Z,98443.28869589884
2022-11-25T09:34:16.813Z,98453.13066989752
2022-11-25T09:37:16.708Z,98456.00069969876
2022-11-25T09:41:35.100Z,98464.94761990475
2022-11-25T10:01:20.542Z,98468.85529254368
2022-11-25T10:04:24.168Z,98469.74578632342
2022-11-25T10:07:22.193Z,98472.58011226267
2022-11-25T10:11:30.082Z,98466.85329827004
2022-11-25T10:14:25.385Z,98462.40308378424
2022-11-25T10:17:25.095Z,98464.51110127957
2022-11-25T10:21:16.728Z,98458.3719257428
2022-11-25T10:24:18.805Z,98445.85890488925
2022-11-25T10:27:22.532Z,98451.76936326345
2022-11-25T10:31:19.752Z,98452.6944315287
2022-11-25T10:34:24.261Z,98452.84962245137
2022-11-25T10:37:27.514Z,98449.10072022592
2022-11-25T10:41:21.033Z,98441.00875942495
2022-11-25T10:44:25.131Z,98436.41945717188
2022-11-25T10:47:32.700Z,98429.06317924464
2022-11-25T10:51:34.734Z,98429.15646431013
2022-11-25T10:54:26.902Z,98429.31140118523
2022-11-25T10:57:19.764Z,98413.29887082288
2022-11-25T11:01:21.495Z,98408.93662306527
2022-11-25T11:04:20.161Z,98409.14040290333
2022-11-25T11:07:17.654Z,98407.41447955181
2022-11-25T11:11:19.522Z,98411.20482622866
2022-11-25T11:14:20.445Z,98407.46065782657
2022-11-25T11:17:36.734Z,98399.81538459583
2022-11-25T11:21:24.413Z,98393.43725578877
2022-11-25T11:24:28.577Z,98384.31611762223
2022-11-25T11:27:20.660Z,98376.4558413428
2022-11-25T11:31:19.534Z,98377.54124463606
2022-11-25T11:34:35.014Z,98367.78933890663
2022-11-25T11:37:32.944Z,98366.65538182695
2022-11-25T11:41:25.477Z,98360.96111445213
2022-11-25T11:44:26.526Z,98354.45561930444
2022-11-25T11:47:25.881Z,98351.56954772024
2022-11-25T11:51:25.161Z,98338.75469825247
2022-11-25T11:54:25.642Z,98336.5588260625
2022-11-25T11:57:29.676Z,98338.81242687273
2022-11-25T12:01:37.536Z,98337.46311089022
2022-11-25T12:04:23.884Z,98333.7999215282
2022-11-25T12:07:25.775Z,98330.71194769646
2022-11-25T12:11:22.522Z,98320.20189100712
2022-11-25T12:14:29.718Z,98315.12207819655
2022-11-25T12:17:22.720Z,98314.87741431812
2022-11-25T12:21:41.412Z,98319.79903944832
2022-11-25T12:24:26.237Z,98317.490258292
2022-11-25T12:27:20.565Z,98316.74713657894
2022-11-25T12:31:22.519Z,98316.39853085935
2022-11-25T12:34:26.663Z,98317.61599266414
2022-11-25T12:37:31.250Z,98313.71720710064
2022-11-25T12:41:25.744Z,98322.67657080607
2022-11-25T12:44:22.118Z,98313.89311389334
2022-11-25T12:47:17.241Z,98306.63874164043
2022-11-25T12:51:31.891Z,98299.8244932888
2022-11-25T12:54:33.946Z,98294.0856444285
2022-11-25T12:57:36.969Z,98290.51313121535
2022-11-25T13:01:45.004Z,98290.24516487058
2022-11-25T13:04:58.050Z,98290.29037374818
2022-11-25T13:07:24.835Z,98296.48528149966
2022-11-25T13:11:34.526Z,98301.06982838422
2022-11-25T13:14:27.065Z,98296.90642453801
2022-11-25T13:17:18.050Z,98289.87838149717
2022-11-25T13:21:18.704Z,98286.4269845602
2022-11-25T13:24:29.851Z,98285.80244031626
2022-11-25T13:27:30.219Z,98282.9421034461
2022-11-25T13:31:20.355Z,98282.173512105
2022-11-25T13:34:28.205Z,98287.25685938612
2022-11-25T13:37:36.733Z,98288.7304291845
2022-11-25T13:41:34.534Z,98285.1735545668
2022-11-25T13:44:24.092Z,98280.51951402766
2022-11-25T13:47:35.557Z,98282.97151685788
2022-11-25T13:51:20.945Z,98277.77033918016
2022-11-25T13:54:20.932Z,98281.13323499038
2022-11-25T13:57:27.199Z,98283.18236706493
2022-11-25T14:01:29.603Z,98275.46725791156
2022-11-25T14:04:23.634Z,98275.85552112071
2022-11-25T14:07:29.679Z,98271.56411697424
2022-11-25T14:11:35.184Z,98264.88479646503
2022-11-25T14:14:32.550Z,98263.68291645657
2022-11-25T14:17:38.135Z,98266.14665778395
2022-11-25T14:21:34.828Z,98267.81735236853
2022-11-25T14:24:29.922Z,98271.20078514572
2022-11-25T14:27:21.809Z,98274.96769358465
2022-11-25T14:31:21.814Z,98273.94572293904
2022-11-25T14:34:21.594Z,98276.24785037125
2022-11-25T14:37:25.449Z,98277.86841873356
2022-11-25T14:41:20.284Z,98278.3997148147
2022-11-25T14:44:23.652Z,98279.4594866026
2022-11-25T14:47:22.077Z,98281.91275376987
2022-11-25T14:51:19.500Z,98281.34519703926
2022-11-25T14:54:17.944Z,98278.33717396398
2022-11-25T14:57:23.756Z,98280.13075873678
2022-11-25T15:01:19.489Z,98281.29704148107
2022-11-25T15:04:19.974Z,98275.86770682778
2022-11-25T15:07:25.046Z,98281.60317700867
2022-11-25T15:11:19.216Z,98272.78875448355
2022-11-25T15:14:24.379Z,98273.46734940236
2022-11-25T15:17:25.762Z,98273.8772788094
2022-11-25T15:21:21.304Z,98262.25367572518
2022-11-25T15:24:23.834Z,98256.54680755884
2022-11-25T15:27:19.949Z,98256.31182521633
2022-11-25T15:31:19.592Z,98256.25309785326
2022-11-25T15:34:20.898Z,98258.63822174742
2022-11-25T15:37:17.479Z,98263.96922525192
2022-11-25T15:41:31.244Z,98260.35313456465
2022-11-25T15:44:20.882Z,98260.79574418743
2022-11-25T15:47:22.308Z,98269.33771534881
2022-11-25T15:51:28.700Z,98263.19143439348
2022-11-25T15:54:21.284Z,98262.07419355938
2022-11-25T15:57:18.961Z,98259.19336046794
2022-11-25T16:01:21.913Z,98259.02466892621
2022-11-25T16:04:20.540Z,98258.8620703551
2022-11-25T16:07:22.885Z,98265.05998355694
2022-11-25T16:11:20.942Z,98270.2162616908
2022-11-25T16:14:23.629Z,98263.38050369378
2022-11-25T16:17:17.587Z,98257.95292968463
2022-11-25T16:21:20.545Z,98265.45863980564
2022-11-25T16:24:31.222Z,98266.34120851604
2022-11-25T16:27:20.956Z,98263.1087610326
2022-11-25T16:31:16.960Z,98258.72837414754
2022-11-25T16:34:18.803Z,98264.21298307097
2022-11-25T16:37:17.298Z,98268.37934399769
2022-11-25T16:41:21.917Z,98269.9479956642
2022-11-25T16:44:19.604Z,98267.20954318275
2022-11-25T16:47:18.713Z,98262.99904939393
2022-11-25T16:51:19.234Z,98258.66394763227
2022-11-25T16:54:18.414Z,98254.21392583093
2022-11-25T16:57:20.677Z,98253.30837547775
2022-11-25T17:01:18.938Z,98247.61814002709
2022-11-25T17:04:17.332Z,98241.70556055428
2022-11-25T17:07:33.642Z,98231.21170208359
2022-11-25T17:11:20.716Z,98229.66002370242
2022-11-25T17:14:24.092Z,98228.60326648405
2022-11-25T17:17:24.337Z,98225.14827520539
2022-11-25T17:21:17.305Z,98219.88467158424
2022-11-25T17:24:19.972Z,98215.20849057059
2022-11-25T17:27:21.675Z,98215.73637700907
2022-11-25T17:31:16.990Z,98209.35458997816
2022-11-25T17:34:17.830Z,98205.63677398478
2022-11-25T17:37:18.953Z,98198.37760672605
2022-11-25T17:41:21.237Z,98189.02497393296
2022-11-25T17:44:24.040Z,98187.10805603098
2022-11-25T17:47:17.451Z,98182.6043832427
2022-11-25T17:51:16.932Z,98185.71928603818
2022-11-25T17:54:17.668Z,98182.49739367723
2022-11-25T17:57:20.586Z,98188.70440202736
2022-11-25T18:01:17.511Z,98189.16692644902
2022-11-25T18:04:22.203Z,98181.54943100103
2022-11-25T18:07:17.825Z,98180.69969618306
2022-11-25T18:11:18.858Z,98174.20135730007
2022-11-25T18:14:24.677Z,98174.5628030271
2022-11-25T18:17:18.349Z,98173.5217565782
2022-11-25T18:21:16.685Z,98171.68768202171
2022-11-25T18:24:17.335Z,98169.59245504312
2022-11-25T18:27:21.923Z,98170.08528685814
2022-11-25T18:31:17.122Z,98170.40952438008
2022-11-25T18:34:18.525Z,98169.66667374839
2022-11-25T18:37:17.465Z,98162.96237230238
2022-11-25T18:41:21.045Z,98163.16329512584
2022-11-25T18:44:25.841Z,98158.82078657592
2022-11-25T18:47:16.638Z,98166.39046255835
2022-11-25T18:51:17.366Z,98171.78723948149
2022-11-25T18:54:17.775Z,98182.91248500426
2022-11-25T18:57:17.540Z,98195.5473702868
2022-11-25T19:01:18.696Z,98211.65118602976
2022-11-25T19:04:17.415Z,98227.1923519723
2022-11-25T19:07:17.318Z,98229.50884460272
2022-11-25T19:11:27.259Z,98233.5283576728
2022-11-25T19:14:27.101Z,98237.63301061092
2022-11-25T19:17:20.822Z,98237.6243443432
2022-11-25T19:21:19.706Z,98238.76486150599
2022-11-25T19:24:17.536Z,98236.20071388941
2022-11-25T19:27:20.890Z,98236.30488238313
2022-11-25T19:31:19.267Z,98236.45663111284
2022-11-25T19:34:25.436Z,98236.04280256302
2022-11-25T19:37:19.270Z,98236.04280256302
2022-11-25T19:41:17.825Z,98237.62194142041
2022-11-25T19:44:18.392Z,98238.62468972318
2022-11-25T19:47:20.834Z,98237.62911417127
2022-11-25T19:51:18.387Z,98234.67007507708
2022-11-25T19:54:19.003Z,98239.03066124272
2022-11-25T19:57:19.988Z,98243.47747757735
2022-11-25T20:01:17.704Z,98256.87374050972
2022-11-25T20:04:20.155Z,98263.59957050339
2022-11-25T20:07:20.009Z,98259.10891102135
2022-11-25T20:11:18.403Z,98261.8818491299
2022-11-25T20:14:17.466Z,98266.82950934711
2022-11-25T20:17:24.122Z,98256.31738762859
2022-11-25T20:21:25.941Z,98264.09076984138
2022-11-25T20:24:19.849Z,98261.35199610153
2022-11-25T20:27:17.527Z,98261.57444084178
2022-11-25T20:31:16.764Z,98265.4476821999
2022-11-25T20:34:16.914Z,98262.40075313004
2022-11-25T20:37:24.368Z,98255.71323034949
2022-11-25T20:41:17.023Z,98255.25744743554
2022-11-25T20:44:18.073Z,98250.62844350399
2022-11-25T20:47:20.021Z,98246.91408703949
2022-11-25T20:51:20.435Z,98240.00345485215
2022-11-25T20:54:18.166Z,98237.8065322404
2022-11-25T20:57:16.712Z,98230.8428748706
2022-11-25T21:01:17.580Z,98226.64066077255
2022-11-25T21:04:17.498Z,98221.17087042451
2022-11-25T21:07:18.230Z,98217.88383146141
2022-11-25T21:11:18.998Z,98206.63321736813
2022-11-25T21:14:19.202Z,98197.96278289407
2022-11-25T21:17:17.645Z,98193.18779083641
2022-11-25T21:21:29.526Z,98183.11989322545
2022-11-25T21:24:27.613Z,98179.57421922366
2022-11-25T21:27:17.351Z,98176.87330249217
2022-11-25T21:31:20.284Z,98168.20583354312
2022-11-25T21:34:16.873Z,98155.17733767375
2022-11-25T21:37:18.702Z,98144.06489746057
2022-11-25T21:41:17.973Z,98136.8601690291
2022-11-25T21:44:25.202Z,98137.7783864893
2022-11-25T21:47:20.337Z,98135.7760404722
2022-11-25T21:51:22.063Z,98136.9759522092
2022-11-25T21:54:16.953Z,98138.55936829164
2022-11-25T21:57:19.356Z,98135.2461046241
2022-11-25T22:01:16.737Z,98133.20773919151
2022-11-25T22:04:19.275Z,98130.45521388436
2022-11-25T22:07:16.780Z,98124.00972915461
2022-11-25T22:11:20.419Z,98126.44776041481
2022-11-25T22:14:24.243Z,98126.20623913234
2022-11-25T22:17:17.930Z,98115.91618849045
2022-11-25T22:21:16.419Z,98120.96908870817
2022-11-25T22:24:18.630Z,98114.26519718203
2022-11-25T22:27:20.553Z,98113.48664353346
2022-11-25T22:31:18.369Z,98118.29645070518
2022-11-25T22:34:20.138Z,98120.70536870146
2022-11-25T22:37:20.206Z,98114.84826274432
2022-11-25T22:41:17.085Z,98109.53060217515
2022-11-25T22:44:20.684Z,98101.47700828857
2022-11-25T22:47:25.421Z,98099.79684945515
2022-11-25T22:51:22.415Z,98084.57776880765
2022-11-25T22:54:17.275Z,98091.54653074885
2022-11-25T22:57:18.256Z,98075.44480084245
2022-11-25T23:01:17.181Z,98075.42041497171
2022-11-25T23:04:19.259Z,98071.61223483576
2022-11-25T23:07:18.683Z,98066.21611493969
2022-11-25T23:11:19.892Z,98058.5512266471
2022-11-25T23:14:17.366Z,98056.84891903789
2022-11-25T23:17:21.053Z,98045.99959721722
2022-11-25T23:21:19.074Z,98039.47765846158
2022-11-25T23:24:17.077Z,98034.0677209751
2022-11-25T23:27:17.085Z,98024.84445152374
2022-11-25T23:31:16.814Z,98023.27928658573
2022-11-25T23:34:16.659Z,98017.82027711392
2022-11-25T23:37:16.939Z,98020.78373004614
2022-11-25T23:41:19.964Z,98023.03371792719
2022-11-25T23:44:21.775Z,98036.13746625769
2022-11-25T23:47:19.871Z,98049.50939962975
2022-11-25T23:51:16.422Z,98039.41054573342
2022-11-25T23:54:20.280Z,98040.9891539592
2022-11-25T23:57:19.163Z,98040.00520589235
